RCSS/TSA METAR and TAF weather

Enter ICAO airport designator
Station Type Date Time Source
RCSS METAR 2021/10/20 06:00 UTC NOAA

RCSS 200600Z 08014KT 9999 FEW018 SCT080 BKN150 27/18 Q1014 NOSIG RMK A2996


Station Type Date Time Source
RCSS Decoded METAR 2021/10/20 06:00 UTC NOAA

Sungshan / Taipei, Taiwan (RCSS) 25-04N 121-33E
Oct 20, 2021 - 02:00 AM EDT / 2021.10.20 0600 UTC
Wind: from the E (080 degrees) at 16 MPH (14 KT):0
Visibility: greater than 7 mile(s):0
Sky conditions: mostly cloudy
Temperature: 80 F (27 C)
Dew Point: 64 F (18 C)
Relative Humidity: 57%
Pressure (altimeter): 29.94 in. Hg (1014 hPa)
ob: RCSS 200600Z 08014KT 9999 FEW018 SCT080 BKN150 27/18 Q1014 NOSIG RMK A2996
cycle: 6

Station Type Date Time Source
RCSS TAF 2021/10/20 06:09 UTC NOAA

TAF RCSS 200500Z 2006/2106 09012KT 9999 FEW016 BKN032
BECMG 2011/2013 09005KT
TEMPO 2020/2102 27005KT
TEMPO 2102/2106 31008KT 5000 RA FEW008 BKN018

Example: see airport list